sensor_id;sensor_type;location;lat;lon;timestamp;pressure;altitude;pressure_sealevel;temperature;humidity
11830;BME280;5972;42.134;24.718;2023-01-29T00:01:47;99841.59;;;5.52;100.00
11830;BME280;5972;42.134;24.718;2023-01-29T00:04:13;99840.97;;;5.55;100.00
11830;BME280;5972;42.134;24.718;2023-01-29T00:06:40;99842.06;;;5.54;100.00
11830;BME280;5972;42.134;24.718;2023-01-29T00:09:09;99847.63;;;5.57;100.00
11830;BME280;5972;42.134;24.718;2023-01-29T00:11:35;99836.97;;;5.52;100.00
11830;BME280;5972;42.134;24.718;2023-01-29T00:14:03;99839.94;;;5.64;100.00
11830;BME280;5972;42.134;24.718;2023-01-29T00:16:29;99853.00;;;5.57;100.00
11830;BME280;5972;42.134;24.718;2023-01-29T00:18:56;99851.78;;;5.63;100.00
11830;BME280;5972;42.134;24.718;2023-01-29T00:21:23;99853.06;;;5.66;100.00
11830;BME280;5972;42.134;24.718;2023-01-29T00:23:50;99841.75;;;5.55;100.00
11830;BME280;5972;42.134;24.718;2023-01-29T00:26:21;99850.50;;;5.61;100.00
11830;BME280;5972;42.134;24.718;2023-01-29T00:28:49;99869.59;;;5.59;100.00
11830;BME280;5972;42.134;24.718;2023-01-29T00:31:17;99866.63;;;5.47;100.00
11830;BME280;5972;42.134;24.718;2023-01-29T00:33:44;99866.59;;;5.61;100.00
11830;BME280;5972;42.134;24.718;2023-01-29T00:36:14;99870.56;;;5.63;100.00
11830;BME280;5972;42.134;24.718;2023-01-29T00:38:41;99863.56;;;5.40;100.00
11830;BME280;5972;42.134;24.718;2023-01-29T00:41:08;99871.28;;;5.55;100.00
11830;BME280;5972;42.134;24.718;2023-01-29T00:43:54;99870.19;;;5.56;100.00
11830;BME280;5972;42.134;24.718;2023-01-29T00:46:39;99875.34;;;5.53;100.00
11830;BME280;5972;42.134;24.718;2023-01-29T00:49:06;99861.06;;;5.43;100.00
11830;BME280;5972;42.134;24.718;2023-01-29T00:51:33;99881.53;;;5.53;100.00
11830;BME280;5972;42.134;24.718;2023-01-29T00:54:00;99878.53;;;5.55;100.00
11830;BME280;5972;42.134;24.718;2023-01-29T00:56:35;99878.84;;;5.53;100.00
11830;BME280;5972;42.134;24.718;2023-01-29T00:59:05;99870.91;;;5.48;100.00
11830;BME280;5972;42.134;24.718;2023-01-29T01:01:32;99871.63;;;5.40;100.00
11830;BME280;5972;42.134;24.718;2023-01-29T01:04:16;99870.50;;;5.41;100.00
11830;BME280;5972;42.134;24.718;2023-01-29T01:06:43;99872.94;;;5.29;100.00
11830;BME280;5972;42.134;24.718;2023-01-29T01:09:10;99875.78;;;5.32;100.00
11830;BME280;5972;42.134;24.718;2023-01-29T01:11:54;99866.66;;;5.20;100.00
11830;BME280;5972;42.134;24.718;2023-01-29T01:14:22;99880.66;;;5.30;100.00
11830;BME280;5972;42.134;24.718;2023-01-29T01:16:49;99870.72;;;5.31;100.00
11830;BME280;5972;42.134;24.718;2023-01-29T01:19:16;99856.25;;;5.18;100.00
11830;BME280;5972;42.134;24.718;2023-01-29T01:21:45;99881.66;;;5.34;100.00
11830;BME280;5972;42.134;24.718;2023-01-29T01:24:12;99846.38;;;5.14;100.00
11830;BME280;5972;42.134;24.718;2023-01-29T01:26:39;99879.16;;;5.24;100.00
11830;BME280;5972;42.134;24.718;2023-01-29T01:29:06;99876.19;;;5.26;100.00
11830;BME280;5972;42.134;24.718;2023-01-29T01:31:34;99877.59;;;5.23;100.00
11830;BME280;5972;42.134;24.718;2023-01-29T01:34:01;99874.50;;;5.30;100.00
11830;BME280;5972;42.134;24.718;2023-01-29T01:36:28;99882.06;;;5.00;100.00
11830;BME280;5972;42.134;24.718;2023-01-29T01:38:56;99888.91;;;5.20;100.00
11830;BME280;5972;42.134;24.718;2023-01-29T01:41:23;99885.81;;;5.13;100.00
11830;BME280;5972;42.134;24.718;2023-01-29T01:43:52;99877.50;;;5.15;100.00
11830;BME280;5972;42.134;24.718;2023-01-29T01:46:20;99880.06;;;5.20;100.00
11830;BME280;5972;42.134;24.718;2023-01-29T01:48:51;99876.69;;;5.14;100.00
11830;BME280;5972;42.134;24.718;2023-01-29T01:51:23;99864.38;;;5.13;100.00
11830;BME280;5972;42.134;24.718;2023-01-29T01:53:53;99873.63;;;5.21;100.00
11830;BME280;5972;42.134;24.718;2023-01-29T01:56:27;99843.53;;;4.83;100.00
11830;BME280;5972;42.134;24.718;2023-01-29T01:59:06;99881.75;;;5.02;100.00
11830;BME280;5972;42.134;24.718;2023-01-29T02:01:35;99865.69;;;4.88;100.00
11830;BME280;5972;42.134;24.718;2023-01-29T02:04:06;99884.34;;;5.07;100.00
11830;BME280;5972;42.134;24.718;2023-01-29T02:06:53;99884.03;;;5.09;100.00
11830;BME280;5972;42.134;24.718;2023-01-29T02:09:41;99878.97;;;5.07;100.00
11830;BME280;5972;42.134;24.718;2023-01-29T02:12:12;99877.19;;;5.02;100.00
11830;BME280;5972;42.134;24.718;2023-01-29T02:14:40;99861.19;;;4.97;100.00
11830;BME280;5972;42.134;24.718;2023-01-29T02:17:10;99884.06;;;5.22;100.00
11830;BME280;5972;42.134;24.718;2023-01-29T02:19:45;99887.53;;;5.23;100.00
11830;BME280;5972;42.134;24.718;2023-01-29T02:22:33;99886.84;;;5.17;100.00
11830;BME280;5972;42.134;24.718;2023-01-29T02:28:17;99892.38;;;5.07;100.00
11830;BME280;5972;42.134;24.718;2023-01-29T02:30:50;99899.06;;;5.23;100.00
11830;BME280;5972;42.134;24.718;2023-01-29T02:33:27;99906.00;;;5.24;100.00
11830;BME280;5972;42.134;24.718;2023-01-29T02:35:58;99901.75;;;5.23;100.00
11830;BME280;5972;42.134;24.718;2023-01-29T02:38:35;99907.97;;;5.19;100.00
11830;BME280;5972;42.134;24.718;2023-01-29T02:41:09;99899.06;;;5.23;100.00
11830;BME280;5972;42.134;24.718;2023-01-29T02:43:44;99907.47;;;5.30;100.00
11830;BME280;5972;42.134;24.718;2023-01-29T02:46:16;99919.53;;;5.33;100.00
11830;BME280;5972;42.134;24.718;2023-01-29T02:48:49;99901.94;;;5.27;100.00
11830;BME280;5972;42.134;24.718;2023-01-29T02:51:23;99879.19;;;5.11;100.00
11830;BME280;5972;42.134;24.718;2023-01-29T02:53:56;99901.72;;;5.37;100.00
11830;BME280;5972;42.134;24.718;2023-01-29T02:56:28;99903.94;;;5.35;100.00
11830;BME280;5972;42.134;24.718;2023-01-29T02:59:03;99911.25;;;5.43;100.00
11830;BME280;5972;42.134;24.718;2023-01-29T03:01:35;99907.31;;;5.40;100.00
11830;BME280;5972;42.134;24.718;2023-01-29T03:04:08;99916.72;;;5.38;100.00
11830;BME280;5972;42.134;24.718;2023-01-29T03:06:39;99919.22;;;5.34;100.00
11830;BME280;5972;42.134;24.718;2023-01-29T03:09:11;99917.72;;;5.42;100.00
11830;BME280;5972;42.134;24.718;2023-01-29T03:11:44;99916.63;;;5.43;100.00
11830;BME280;5972;42.134;24.718;2023-01-29T03:14:17;99923.88;;;5.42;100.00
11830;BME280;5972;42.134;24.718;2023-01-29T03:16:49;99930.66;;;5.26;100.00
11830;BME280;5972;42.134;24.718;2023-01-29T03:19:19;99904.81;;;5.17;100.00
11830;BME280;5972;42.134;24.718;2023-01-29T03:21:53;99924.88;;;5.33;100.00
11830;BME280;5972;42.134;24.718;2023-01-29T03:24:39;99938.31;;;5.33;100.00
11830;BME280;5972;42.134;24.718;2023-01-29T03:27:27;99940.19;;;5.32;100.00
11830;BME280;5972;42.134;24.718;2023-01-29T03:30:15;99933.53;;;5.30;100.00
11830;BME280;5972;42.134;24.718;2023-01-29T03:33:03;99881.06;;;4.96;100.00
11830;BME280;5972;42.134;24.718;2023-01-29T03:35:34;99938.13;;;5.29;100.00
11830;BME280;5972;42.134;24.718;2023-01-29T03:38:05;99949.22;;;5.36;100.00
11830;BME280;5972;42.134;24.718;2023-01-29T03:40:39;99948.94;;;5.38;100.00
11830;BME280;5972;42.134;24.718;2023-01-29T03:43:12;99877.69;;;4.91;100.00
11830;BME280;5972;42.134;24.718;2023-01-29T03:45:50;99910.28;;;5.12;100.00
11830;BME280;5972;42.134;24.718;2023-01-29T03:48:26;99948.31;;;5.14;100.00
11830;BME280;5972;42.134;24.718;2023-01-29T03:50:58;99953.00;;;5.22;100.00
11830;BME280;5972;42.134;24.718;2023-01-29T03:53:29;99920.59;;;4.91;100.00
11830;BME280;5972;42.134;24.718;2023-01-29T03:56:01;99948.41;;;5.09;100.00
11830;BME280;5972;42.134;24.718;2023-01-29T03:58:35;99948.72;;;5.07;100.00
11830;BME280;5972;42.134;24.718;2023-01-29T04:01:11;99964.09;;;5.01;100.00
11830;BME280;5972;42.134;24.718;2023-01-29T04:03:45;99960.13;;;4.99;100.00
11830;BME280;5972;42.134;24.718;2023-01-29T04:06:17;99970.16;;;5.07;100.00
11830;BME280;5972;42.134;24.718;2023-01-29T04:08:48;99951.56;;;4.97;100.00
11830;BME280;5972;42.134;24.718;2023-01-29T04:11:19;99974.75;;;5.07;100.00
11830;BME280;5972;42.134;24.718;2023-01-29T04:13:47;99975.53;;;5.07;100.00
11830;BME280;5972;42.134;24.718;2023-01-29T04:16:18;99968.59;;;5.06;100.00
11830;BME280;5972;42.134;24.718;2023-01-29T04:18:47;99957.84;;;4.92;100.00
11830;BME280;5972;42.134;24.718;2023-01-29T04:21:14;99991.22;;;5.00;100.00
11830;BME280;5972;42.134;24.718;2023-01-29T04:23:41;99985.25;;;5.03;100.00
11830;BME280;5972;42.134;24.718;2023-01-29T04:26:24;99985.44;;;4.93;100.00
11830;BME280;5972;42.134;24.718;2023-01-29T04:29:08;99982.09;;;5.01;100.00
11830;BME280;5972;42.134;24.718;2023-01-29T04:31:43;99996.41;;;5.10;100.00
11830;BME280;5972;42.134;24.718;2023-01-29T04:34:20;99992.31;;;5.13;100.00
11830;BME280;5972;42.134;24.718;2023-01-29T04:36:56;99995.00;;;4.99;100.00
11830;BME280;5972;42.134;24.718;2023-01-29T04:39:30;99977.91;;;4.95;100.00
11830;BME280;5972;42.134;24.718;2023-01-29T04:42:05;100000.69;;;5.11;100.00
11830;BME280;5972;42.134;24.718;2023-01-29T04:44:40;99996.88;;;4.98;100.00
11830;BME280;5972;42.134;24.718;2023-01-29T04:47:18;99979.78;;;4.94;100.00
11830;BME280;5972;42.134;24.718;2023-01-29T04:49:54;99972.31;;;4.78;100.00
11830;BME280;5972;42.134;24.718;2023-01-29T04:52:31;100007.31;;;5.00;100.00
11830;BME280;5972;42.134;24.718;2023-01-29T04:55:06;100006.63;;;5.08;100.00
11830;BME280;5972;42.134;24.718;2023-01-29T04:57:40;100009.69;;;5.01;100.00
11830;BME280;5972;42.134;24.718;2023-01-29T05:00:15;100011.66;;;4.96;100.00
11830;BME280;5972;42.134;24.718;2023-01-29T05:02:45;100016.09;;;4.73;100.00
11830;BME280;5972;42.134;24.718;2023-01-29T05:05:14;100005.66;;;4.72;100.00
11830;BME280;5972;42.134;24.718;2023-01-29T05:07:44;100002.78;;;4.82;100.00
11830;BME280;5972;42.134;24.718;2023-01-29T05:10:14;100016.81;;;4.92;100.00
11830;BME280;5972;42.134;24.718;2023-01-29T05:12:42;100030.75;;;4.94;100.00
11830;BME280;5972;42.134;24.718;2023-01-29T05:15:15;100007.97;;;4.92;100.00
11830;BME280;5972;42.134;24.718;2023-01-29T05:17:44;100027.00;;;5.09;100.00
11830;BME280;5972;42.134;24.718;2023-01-29T05:20:11;100026.63;;;5.16;100.00
11830;BME280;5972;42.134;24.718;2023-01-29T05:22:39;100019.75;;;5.10;100.00
11830;BME280;5972;42.134;24.718;2023-01-29T05:25:19;100012.69;;;5.00;100.00
11830;BME280;5972;42.134;24.718;2023-01-29T05:27:48;100016.88;;;5.06;100.00
11830;BME280;5972;42.134;24.718;2023-01-29T05:30:31;100021.13;;;5.07;100.00
11830;BME280;5972;42.134;24.718;2023-01-29T05:32:59;100019.41;;;4.97;100.00
11830;BME280;5972;42.134;24.718;2023-01-29T05:35:26;100031.09;;;5.20;100.00
11830;BME280;5972;42.134;24.718;2023-01-29T05:37:53;100028.91;;;5.22;100.00
11830;BME280;5972;42.134;24.718;2023-01-29T05:40:20;100032.97;;;5.20;100.00
11830;BME280;5972;42.134;24.718;2023-01-29T05:42:47;100034.56;;;5.21;100.00
11830;BME280;5972;42.134;24.718;2023-01-29T05:45:14;100036.22;;;5.03;100.00
11830;BME280;5972;42.134;24.718;2023-01-29T05:47:41;100040.03;;;5.16;100.00
11830;BME280;5972;42.134;24.718;2023-01-29T05:50:13;100045.69;;;5.14;100.00
11830;BME280;5972;42.134;24.718;2023-01-29T05:52:41;100041.03;;;5.20;100.00
11830;BME280;5972;42.134;24.718;2023-01-29T05:55:08;99996.44;;;4.91;100.00
11830;BME280;5972;42.134;24.718;2023-01-29T05:57:35;100040.22;;;5.06;100.00
11830;BME280;5972;42.134;24.718;2023-01-29T06:00:04;100031.13;;;5.01;100.00
11830;BME280;5972;42.134;24.718;2023-01-29T06:02:31;100063.66;;;5.14;100.00
11830;BME280;5972;42.134;24.718;2023-01-29T06:04:57;100058.59;;;5.12;100.00
11830;BME280;5972;42.134;24.718;2023-01-29T06:07:27;100062.28;;;5.16;100.00
11830;BME280;5972;42.134;24.718;2023-01-29T06:09:54;100065.47;;;5.18;100.00
11830;BME280;5972;42.134;24.718;2023-01-29T06:12:21;100066.41;;;4.95;100.00
11830;BME280;5972;42.134;24.718;2023-01-29T06:14:48;100073.75;;;5.03;100.00
11830;BME280;5972;42.134;24.718;2023-01-29T06:17:14;100070.50;;;5.06;100.00
11830;BME280;5972;42.134;24.718;2023-01-29T06:19:41;100067.56;;;4.89;100.00
11830;BME280;5972;42.134;24.718;2023-01-29T06:22:10;100072.88;;;5.08;100.00
11830;BME280;5972;42.134;24.718;2023-01-29T06:24:38;100072.97;;;5.02;100.00
11830;BME280;5972;42.134;24.718;2023-01-29T06:27:05;100080.06;;;5.12;100.00
11830;BME280;5972;42.134;24.718;2023-01-29T06:29:31;100066.16;;;5.10;100.00
11830;BME280;5972;42.134;24.718;2023-01-29T06:31:58;100074.19;;;5.10;100.00
11830;BME280;5972;42.134;24.718;2023-01-29T06:34:25;100087.06;;;5.27;100.00
11830;BME280;5972;42.134;24.718;2023-01-29T06:36:52;100096.81;;;5.36;100.00
11830;BME280;5972;42.134;24.718;2023-01-29T06:39:18;100091.03;;;5.29;100.00
11830;BME280;5972;42.134;24.718;2023-01-29T06:41:46;100080.06;;;5.12;100.00
11830;BME280;5972;42.134;24.718;2023-01-29T06:44:13;100099.81;;;5.35;100.00
11830;BME280;5972;42.134;24.718;2023-01-29T06:46:40;100106.88;;;5.44;100.00
11830;BME280;5972;42.134;24.718;2023-01-29T06:49:07;100105.19;;;5.49;100.00
11830;BME280;5972;42.134;24.718;2023-01-29T06:51:33;100069.25;;;5.31;100.00
11830;BME280;5972;42.134;24.718;2023-01-29T06:54:00;100103.25;;;5.68;100.00
11830;BME280;5972;42.134;24.718;2023-01-29T06:56:27;100106.31;;;5.61;100.00
11830;BME280;5972;42.134;24.718;2023-01-29T06:58:55;100097.41;;;5.47;100.00
11830;BME280;5972;42.134;24.718;2023-01-29T07:01:22;100110.78;;;5.66;100.00
11830;BME280;5972;42.134;24.718;2023-01-29T07:03:49;100100.44;;;5.59;100.00
11830;BME280;5972;42.134;24.718;2023-01-29T07:06:16;100104.22;;;5.72;100.00
11830;BME280;5972;42.134;24.718;2023-01-29T07:08:43;100092.97;;;5.70;100.00
11830;BME280;5972;42.134;24.718;2023-01-29T07:11:12;100112.25;;;5.91;100.00
11830;BME280;5972;42.134;24.718;2023-01-29T07:13:39;100107.22;;;5.84;100.00
11830;BME280;5972;42.134;24.718;2023-01-29T07:16:08;100112.03;;;5.87;100.00
11830;BME280;5972;42.134;24.718;2023-01-29T07:18:35;100125.56;;;5.96;100.00
11830;BME280;5972;42.134;24.718;2023-01-29T07:21:09;100082.03;;;5.53;100.00
11830;BME280;5972;42.134;24.718;2023-01-29T07:23:38;100112.94;;;5.96;100.00
11830;BME280;5972;42.134;24.718;2023-01-29T07:26:05;100140.41;;;6.07;100.00
11830;BME280;5972;42.134;24.718;2023-01-29T07:28:35;100131.53;;;6.06;100.00
11830;BME280;5972;42.134;24.718;2023-01-29T07:31:02;100100.47;;;5.73;100.00
11830;BME280;5972;42.134;24.718;2023-01-29T07:33:34;100137.41;;;6.08;100.00
11830;BME280;5972;42.134;24.718;2023-01-29T07:36:00;100128.63;;;6.03;100.00
11830;BME280;5972;42.134;24.718;2023-01-29T07:38:27;100117.78;;;6.21;100.00
11830;BME280;5972;42.134;24.718;2023-01-29T07:40:54;100129.25;;;6.41;100.00
11830;BME280;5972;42.134;24.718;2023-01-29T07:43:21;100120.84;;;6.42;100.00
11830;BME280;5972;42.134;24.718;2023-01-29T07:45:49;100096.28;;;6.35;100.00
11830;BME280;5972;42.134;24.718;2023-01-29T07:48:15;100128.75;;;6.75;100.00
11830;BME280;5972;42.134;24.718;2023-01-29T07:50:44;100113.78;;;6.82;100.00
11830;BME280;5972;42.134;24.718;2023-01-29T07:53:12;100134.81;;;7.02;100.00
11830;BME280;5972;42.134;24.718;2023-01-29T07:55:43;100138.66;;;7.01;100.00
11830;BME280;5972;42.134;24.718;2023-01-29T07:58:10;100106.69;;;6.86;100.00
11830;BME280;5972;42.134;24.718;2023-01-29T08:00:37;100145.50;;;7.07;100.00
11830;BME280;5972;42.134;24.718;2023-01-29T08:03:09;100141.63;;;7.22;100.00
11830;BME280;5972;42.134;24.718;2023-01-29T08:05:38;100153.19;;;7.45;100.00
11830;BME280;5972;42.134;24.718;2023-01-29T08:08:09;100127.78;;;7.60;100.00
11830;BME280;5972;42.134;24.718;2023-01-29T08:10:44;100173.53;;;8.21;100.00
11830;BME280;5972;42.134;24.718;2023-01-29T08:13:25;100047.91;;;7.94;100.00
11830;BME280;5972;42.134;24.718;2023-01-29T08:15:52;99992.19;;;7.64;100.00
11830;BME280;5972;42.134;24.718;2023-01-29T08:18:22;100092.25;;;8.37;98.88
11830;BME280;5972;42.134;24.718;2023-01-29T08:20:58;100115.25;;;8.43;98.34
11830;BME280;5972;42.134;24.718;2023-01-29T08:23:29;100109.44;;;8.66;96.84
11830;BME280;5972;42.134;24.718;2023-01-29T08:25:56;100162.75;;;8.69;99.33
11830;BME280;5972;42.134;24.718;2023-01-29T08:28:26;100167.19;;;8.57;100.00
11830;BME280;5972;42.134;24.718;2023-01-29T08:30:53;100162.91;;;8.64;98.82
11830;BME280;5972;42.134;24.718;2023-01-29T08:33:19;100163.66;;;8.48;100.00
11830;BME280;5972;42.134;24.718;2023-01-29T08:35:48;100175.38;;;8.43;100.00
11830;BME280;5972;42.134;24.718;2023-01-29T08:38:14;100174.13;;;8.41;100.00
11830;BME280;5972;42.134;24.718;2023-01-29T08:40:43;100143.06;;;8.12;100.00
11830;BME280;5972;42.134;24.718;2023-01-29T08:43:12;100138.56;;;7.99;100.00
11830;BME280;5972;42.134;24.718;2023-01-29T08:45:41;100167.63;;;8.11;100.00
11830;BME280;5972;42.134;24.718;2023-01-29T08:48:10;100178.78;;;7.87;100.00
11830;BME280;5972;42.134;24.718;2023-01-29T08:50:37;100173.84;;;7.58;100.00
11830;BME280;5972;42.134;24.718;2023-01-29T08:53:06;100178.47;;;7.58;100.00
11830;BME280;5972;42.134;24.718;2023-01-29T08:55:34;100173.81;;;7.49;100.00
11830;BME280;5972;42.134;24.718;2023-01-29T08:58:04;100179.38;;;7.53;100.00
11830;BME280;5972;42.134;24.718;2023-01-29T09:00:30;100168.38;;;7.63;100.00
11830;BME280;5972;42.134;24.718;2023-01-29T09:02:57;100174.81;;;7.84;100.00
11830;BME280;5972;42.134;24.718;2023-01-29T09:05:25;100167.19;;;7.56;100.00
11830;BME280;5972;42.134;24.718;2023-01-29T09:07:53;100174.44;;;7.77;100.00
11830;BME280;5972;42.134;24.718;2023-01-29T09:10:19;100175.91;;;7.83;100.00
11830;BME280;5972;42.134;24.718;2023-01-29T09:12:46;100174.31;;;7.82;100.00
11830;BME280;5972;42.134;24.718;2023-01-29T09:15:14;100165.97;;;7.92;100.00
11830;BME280;5972;42.134;24.718;2023-01-29T09:17:41;100151.16;;;7.81;100.00
11830;BME280;5972;42.134;24.718;2023-01-29T09:20:09;100175.50;;;7.99;100.00
11830;BME280;5972;42.134;24.718;2023-01-29T09:22:36;100161.34;;;7.84;100.00
11830;BME280;5972;42.134;24.718;2023-01-29T09:25:03;100163.03;;;7.80;100.00
11830;BME280;5972;42.134;24.718;2023-01-29T09:27:30;100167.03;;;7.83;100.00
11830;BME280;5972;42.134;24.718;2023-01-29T09:29:57;100159.53;;;7.71;100.00
11830;BME280;5972;42.134;24.718;2023-01-29T09:32:25;100163.00;;;7.72;100.00
11830;BME280;5972;42.134;24.718;2023-01-29T09:34:54;100157.19;;;7.78;100.00
11830;BME280;5972;42.134;24.718;2023-01-29T09:37:21;100144.00;;;7.68;100.00
11830;BME280;5972;42.134;24.718;2023-01-29T09:39:49;100166.59;;;7.89;100.00
11830;BME280;5972;42.134;24.718;2023-01-29T09:42:22;100165.50;;;7.90;100.00
11830;BME280;5972;42.134;24.718;2023-01-29T09:44:58;100133.81;;;7.65;100.00
11830;BME280;5972;42.134;24.718;2023-01-29T09:47:28;100163.53;;;7.82;100.00
11830;BME280;5972;42.134;24.718;2023-01-29T09:49:59;100146.94;;;7.58;100.00
11830;BME280;5972;42.134;24.718;2023-01-29T09:52:35;100159.38;;;7.76;100.00
11830;BME280;5972;42.134;24.718;2023-01-29T09:55:08;100136.22;;;7.67;100.00
11830;BME280;5972;42.134;24.718;2023-01-29T09:57:50;100153.53;;;7.74;100.00
11830;BME280;5972;42.134;24.718;2023-01-29T10:00:22;100135.06;;;7.59;100.00
11830;BME280;5972;42.134;24.718;2023-01-29T10:03:03;100136.34;;;7.62;100.00
11830;BME280;5972;42.134;24.718;2023-01-29T10:05:45;100130.06;;;7.44;100.00
11830;BME280;5972;42.134;24.718;2023-01-29T10:11:27;100142.00;;;7.51;100.00
11830;BME280;5972;42.134;24.718;2023-01-29T10:14:06;100140.63;;;7.63;100.00
11830;BME280;5972;42.134;24.718;2023-01-29T10:16:52;100141.91;;;7.65;100.00
11830;BME280;5972;42.134;24.718;2023-01-29T10:25:10;100120.34;;;7.96;100.00
11830;BME280;5972;42.134;24.718;2023-01-29T10:27:40;100122.25;;;8.04;100.00
11830;BME280;5972;42.134;24.718;2023-01-29T10:30:21;100100.03;;;7.90;100.00
11830;BME280;5972;42.134;24.718;2023-01-29T10:32:53;100106.28;;;8.08;100.00
11830;BME280;5972;42.134;24.718;2023-01-29T10:35:27;100111.19;;;8.14;100.00
11830;BME280;5972;42.134;24.718;2023-01-29T10:37:57;100089.13;;;8.04;100.00
11830;BME280;5972;42.134;24.718;2023-01-29T10:40:33;100107.59;;;8.27;100.00
11830;BME280;5972;42.134;24.718;2023-01-29T10:43:05;100097.91;;;8.18;100.00
11830;BME280;5972;42.134;24.718;2023-01-29T10:45:45;100025.16;;;7.70;100.00
11830;BME280;5972;42.134;24.718;2023-01-29T10:48:39;100104.81;;;8.41;100.00
11830;BME280;5972;42.134;24.718;2023-01-29T10:51:37;100104.47;;;8.34;100.00
11830;BME280;5972;42.134;24.718;2023-01-29T10:54:29;99976.00;;;7.56;100.00
11830;BME280;5972;42.134;24.718;2023-01-29T10:57:08;100097.03;;;8.48;100.00
11830;BME280;5972;42.134;24.718;2023-01-29T10:59:52;100047.19;;;8.28;99.30
11830;BME280;5972;42.134;24.718;2023-01-29T11:02:32;100040.22;;;8.36;98.25
11830;BME280;5972;42.134;24.718;2023-01-29T11:04:59;100081.50;;;8.62;96.54
11830;BME280;5972;42.134;24.718;2023-01-29T11:07:29;100076.13;;;8.97;95.82
11830;BME280;5972;42.134;24.718;2023-01-29T11:10:01;100073.06;;;9.07;94.25
11830;BME280;5972;42.134;24.718;2023-01-29T11:12:30;100074.00;;;9.19;91.04
11830;BME280;5972;42.134;24.718;2023-01-29T11:15:02;100078.47;;;9.07;88.59
11830;BME280;5972;42.134;24.718;2023-01-29T11:17:31;100079.56;;;9.14;89.99
11830;BME280;5972;42.134;24.718;2023-01-29T11:19:58;100033.41;;;8.90;89.03
11830;BME280;5972;42.134;24.718;2023-01-29T11:22:26;100042.75;;;8.93;87.69
11830;BME280;5972;42.134;24.718;2023-01-29T11:25:15;100053.53;;;9.10;87.88
11830;BME280;5972;42.134;24.718;2023-01-29T11:27:44;100029.88;;;8.98;86.64
11830;BME280;5972;42.134;24.718;2023-01-29T11:30:20;100061.47;;;9.06;85.96
11830;BME280;5972;42.134;24.718;2023-01-29T11:32:58;100050.03;;;9.09;86.51
11830;BME280;5972;42.134;24.718;2023-01-29T11:35:26;100029.44;;;8.96;85.88
11830;BME280;5972;42.134;24.718;2023-01-29T11:38:06;100018.28;;;8.98;87.11
11830;BME280;5972;42.134;24.718;2023-01-29T11:40:39;100036.53;;;9.18;84.55
11830;BME280;5972;42.134;24.718;2023-01-29T11:43:21;100031.31;;;9.04;85.33
11830;BME280;5972;42.134;24.718;2023-01-29T11:45:50;100034.91;;;9.26;83.88
11830;BME280;5972;42.134;24.718;2023-01-29T11:48:22;100028.22;;;9.40;82.52
11830;BME280;5972;42.134;24.718;2023-01-29T11:50:55;100023.69;;;9.53;80.93
11830;BME280;5972;42.134;24.718;2023-01-29T11:53:33;100032.50;;;9.71;79.50
11830;BME280;5972;42.134;24.718;2023-01-29T11:56:14;100020.91;;;9.70;76.92
11830;BME280;5972;42.134;24.718;2023-01-29T11:58:42;100025.28;;;9.54;77.77
11830;BME280;5972;42.134;24.718;2023-01-29T12:01:14;99999.25;;;9.49;76.80
11830;BME280;5972;42.134;24.718;2023-01-29T12:03:45;100006.16;;;9.30;77.74
11830;BME280;5972;42.134;24.718;2023-01-29T12:06:20;100010.16;;;9.15;80.70
11830;BME280;5972;42.134;24.718;2023-01-29T12:08:54;100000.38;;;9.02;77.89
11830;BME280;5972;42.134;24.718;2023-01-29T12:11:29;100012.09;;;9.06;78.70
11830;BME280;5972;42.134;24.718;2023-01-29T12:13:58;100009.53;;;9.09;80.75
11830;BME280;5972;42.134;24.718;2023-01-29T12:16:28;100015.13;;;9.04;78.92
11830;BME280;5972;42.134;24.718;2023-01-29T12:19:06;100002.38;;;9.22;79.13
11830;BME280;5972;42.134;24.718;2023-01-29T12:21:42;99991.25;;;9.15;78.95
11830;BME280;5972;42.134;24.718;2023-01-29T12:24:27;99997.00;;;9.13;78.25
11830;BME280;5972;42.134;24.718;2023-01-29T12:27:05;99995.88;;;9.14;76.81
11830;BME280;5972;42.134;24.718;2023-01-29T12:29:41;100000.94;;;9.25;77.80
11830;BME280;5972;42.134;24.718;2023-01-29T12:32:21;99979.66;;;9.23;76.45
11830;BME280;5972;42.134;24.718;2023-01-29T12:34:55;99964.75;;;9.08;75.52
11830;BME280;5972;42.134;24.718;2023-01-29T12:37:29;99989.19;;;9.21;76.54
11830;BME280;5972;42.134;24.718;2023-01-29T12:40:01;99983.59;;;9.26;77.16
11830;BME280;5972;42.134;24.718;2023-01-29T12:42:39;99988.06;;;9.30;77.37
11830;BME280;5972;42.134;24.718;2023-01-29T12:45:08;99985.34;;;9.30;76.61
11830;BME280;5972;42.134;24.718;2023-01-29T12:47:37;99966.03;;;9.11;75.51
11830;BME280;5972;42.134;24.718;2023-01-29T12:50:14;99984.16;;;9.02;76.80
11830;BME280;5972;42.134;24.718;2023-01-29T12:52:45;99984.97;;;9.02;76.71
11830;BME280;5972;42.134;24.718;2023-01-29T12:55:17;99987.66;;;9.02;76.25
11830;BME280;5972;42.134;24.718;2023-01-29T12:57:52;99987.53;;;8.82;76.77
11830;BME280;5972;42.134;24.718;2023-01-29T13:00:23;99966.59;;;8.70;78.36
11830;BME280;5972;42.134;24.718;2023-01-29T13:02:55;99987.03;;;8.88;77.64
11830;BME280;5972;42.134;24.718;2023-01-29T13:05:27;99982.75;;;8.87;77.28
11830;BME280;5972;42.134;24.718;2023-01-29T13:08:04;99991.50;;;8.84;76.03
11830;BME280;5972;42.134;24.718;2023-01-29T13:10:41;99977.69;;;8.77;76.87
11830;BME280;5972;42.134;24.718;2023-01-29T13:13:13;99978.97;;;8.80;77.73
11830;BME280;5972;42.134;24.718;2023-01-29T13:15:42;99963.44;;;8.68;76.06
11830;BME280;5972;42.134;24.718;2023-01-29T13:18:39;99988.06;;;8.58;77.40
11830;BME280;5972;42.134;24.718;2023-01-29T13:21:12;99973.94;;;8.52;76.53
11830;BME280;5972;42.134;24.718;2023-01-29T13:23:42;99964.44;;;8.46;76.33
11830;BME280;5972;42.134;24.718;2023-01-29T13:26:10;99991.84;;;8.65;75.34
11830;BME280;5972;42.134;24.718;2023-01-29T13:28:39;99992.78;;;8.69;74.20
11830;BME280;5972;42.134;24.718;2023-01-29T13:31:24;99994.22;;;8.67;74.93
11830;BME280;5972;42.134;24.718;2023-01-29T13:33:57;99982.00;;;8.61;73.98